createdAt,value
2019-05-13T00:00:19.185Z,20.00
2019-05-13T00:01:19.185Z,20.00
2019-05-13T00:02:19.484Z,20.00
2019-05-13T00:03:19.162Z,20.00
2019-05-13T00:04:19.144Z,20.00
2019-05-13T00:05:19.135Z,20.00
2019-05-13T00:06:19.124Z,20.00
2019-05-13T00:07:19.113Z,20.00
2019-05-13T00:08:21.786Z,20.00
2019-05-13T00:09:19.374Z,20.00
2019-05-13T00:10:19.075Z,20.00
2019-05-13T00:11:19.076Z,20.00
2019-05-13T00:12:19.062Z,20.00
2019-05-13T00:13:19.046Z,20.00
2019-05-13T00:14:19.573Z,20.00
2019-05-13T00:15:19.035Z,20.00
2019-05-13T00:16:19.293Z,20.00
2019-05-13T00:17:19.003Z,20.00
2019-05-13T00:18:18.992Z,20.00
2019-05-13T00:19:18.983Z,20.00
2019-05-13T00:20:19.013Z,20.00
2019-05-13T00:21:19.822Z,20.00
2019-05-13T00:22:18.977Z,20.00
2019-05-13T00:23:19.222Z,20.00
2019-05-13T00:24:18.931Z,20.00
2019-05-13T00:25:18.918Z,20.00
2019-05-13T00:26:18.942Z,20.00
2019-05-13T00:27:18.901Z,20.00
2019-05-13T00:28:18.881Z,20.00
2019-05-13T00:29:18.871Z,20.00
2019-05-13T00:30:18.869Z,20.00
2019-05-13T00:31:18.852Z,20.00
2019-05-13T00:32:18.882Z,20.00
2019-05-13T00:33:18.838Z,20.00
2019-05-13T00:34:18.820Z,20.00
2019-05-13T00:35:18.810Z,20.00
2019-05-13T00:36:18.800Z,20.00
2019-05-13T00:37:18.791Z,20.00
2019-05-13T00:38:18.831Z,20.00
2019-05-13T00:39:18.769Z,20.00
2019-05-13T00:40:18.759Z,20.00
2019-05-13T00:41:18.747Z,20.00
2019-05-13T00:42:19.020Z,20.00
2019-05-13T00:43:18.721Z,20.00
2019-05-13T00:44:18.769Z,20.00
2019-05-13T00:45:18.819Z,20.00
2019-05-13T00:46:18.718Z,20.00
2019-05-13T00:47:18.679Z,20.00
2019-05-13T00:48:18.671Z,20.00
2019-05-13T00:49:18.938Z,20.00
2019-05-13T00:50:19.177Z,20.00
2019-05-13T00:51:18.644Z,20.00
2019-05-13T00:52:18.638Z,20.00
2019-05-13T00:53:18.619Z,20.00
2019-05-13T00:54:18.608Z,20.00
2019-05-13T00:55:18.878Z,20.00
2019-05-13T00:56:18.628Z,20.00
2019-05-13T00:57:18.577Z,20.00
2019-05-13T00:58:18.584Z,20.00
2019-05-13T00:59:18.572Z,20.00
2019-05-13T01:00:18.550Z,20.00
2019-05-13T01:01:18.529Z,20.00
2019-05-13T01:02:18.559Z,20.00
2019-05-13T01:03:19.219Z,20.00
2019-05-13T01:04:18.500Z,20.00
2019-05-13T01:05:18.496Z,20.00
2019-05-13T01:06:18.487Z,20.00
2019-05-13T01:07:25.935Z,20.00
2019-05-13T01:08:19.501Z,20.00
2019-05-13T01:09:18.454Z,20.00
2019-05-13T01:10:18.438Z,20.00
2019-05-13T01:11:18.432Z,20.00
2019-05-13T01:12:18.419Z,20.00
2019-05-13T01:13:18.409Z,20.00
2019-05-13T01:14:18.461Z,20.00
2019-05-13T01:15:18.398Z,20.00
2019-05-13T01:16:18.376Z,20.00
2019-05-13T01:17:18.367Z,20.00
2019-05-13T01:18:18.358Z,20.00
2019-05-13T01:19:18.627Z,20.00
2019-05-13T01:20:18.385Z,20.00
2019-05-13T01:21:18.317Z,20.00
2019-05-13T01:22:18.308Z,20.00
2019-05-13T01:23:18.303Z,20.00
2019-05-13T01:24:18.287Z,20.00
2019-05-13T01:25:18.566Z,20.00
2019-05-13T01:26:18.334Z,20.00
2019-05-13T01:27:18.256Z,20.00
2019-05-13T01:28:18.246Z,20.00
2019-05-13T01:29:18.235Z,20.00
2019-05-13T01:30:18.226Z,20.00
2019-05-13T01:31:18.496Z,20.00
2019-05-13T01:32:19.088Z,20.00
2019-05-13T01:33:18.195Z,20.00
2019-05-13T01:34:18.189Z,20.00
2019-05-13T01:35:19.035Z,20.00
2019-05-13T01:36:18.165Z,20.00
2019-05-13T01:37:18.145Z,20.00
2019-05-13T01:38:18.455Z,20.00
2019-05-13T01:39:18.132Z,20.00
2019-05-13T01:40:18.123Z,20.00
2019-05-13T01:41:18.103Z,20.00
2019-05-13T01:42:18.094Z,20.00
2019-05-13T01:43:18.084Z,20.00
2019-05-13T01:44:18.133Z,20.00
2019-05-13T01:45:18.353Z,20.00
2019-05-13T01:46:18.054Z,20.00
2019-05-13T01:47:18.043Z,20.00
2019-05-13T01:48:18.033Z,20.00
2019-05-13T01:49:18.701Z,20.00
2019-05-13T01:50:18.063Z,20.00
2019-05-13T01:51:18.001Z,20.00
2019-05-13T01:52:18.272Z,20.00
2019-05-13T01:53:17.982Z,20.00
2019-05-13T01:54:17.970Z,20.00
2019-05-13T01:55:17.961Z,20.00
2019-05-13T01:56:17.981Z,20.00
2019-05-13T01:57:17.933Z,20.00
2019-05-13T01:58:17.932Z,20.00
2019-05-13T01:59:18.191Z,20.00
2019-05-13T02:01:40.173Z,20.00
2019-05-13T02:02:40.064Z,20.00
2019-05-13T02:03:40.061Z,20.00
2019-05-13T02:04:40.043Z,20.00
2019-05-13T02:05:40.024Z,20.00
2019-05-13T02:06:40.031Z,20.00
2019-05-13T02:07:56.540Z,20.00
2019-05-13T02:08:40.992Z,20.00
2019-05-13T02:09:39.982Z,20.00
2019-05-13T02:10:39.976Z,20.00
2019-05-13T02:11:39.971Z,20.00
2019-05-13T02:12:39.961Z,20.00
2019-05-13T02:13:39.991Z,20.00
2019-05-13T02:14:40.211Z,20.00
2019-05-13T02:15:39.921Z,20.00
2019-05-13T02:16:39.911Z,20.00
2019-05-13T02:17:39.910Z,20.00
2019-05-13T02:18:39.890Z,20.00
2019-05-13T02:19:39.930Z,20.00
2019-05-13T02:20:39.869Z,20.00
2019-05-13T02:21:40.160Z,20.00
2019-05-13T02:22:39.849Z,20.00
2019-05-13T02:23:39.839Z,20.00
2019-05-13T02:24:39.832Z,20.00
2019-05-13T02:25:39.889Z,20.00
2019-05-13T02:26:39.811Z,20.00
2019-05-13T02:27:39.797Z,20.00
2019-05-13T02:28:40.076Z,20.00
2019-05-13T02:29:39.768Z,20.00
2019-05-13T02:30:39.771Z,20.00
2019-05-13T02:31:46.522Z,20.00
2019-05-13T02:32:42.843Z,20.00
2019-05-13T02:33:42.180Z,20.00
2019-05-13T02:34:43.338Z,20.00
2019-05-13T02:35:43.097Z,20.00
2019-05-13T02:36:43.630Z,20.00
2019-05-13T02:37:43.215Z,20.00
2019-05-13T02:38:42.496Z,20.00
2019-05-13T02:39:42.562Z,20.00
2019-05-13T02:40:42.864Z,20.00
2019-05-13T02:41:42.901Z,20.00
2019-05-13T02:42:43.242Z,20.00
2019-05-13T02:43:42.171Z,20.00
2019-05-13T02:44:43.473Z,20.00
2019-05-13T02:45:42.671Z,20.00
2019-05-13T02:46:39.878Z,20.00
2019-05-13T02:47:39.586Z,20.00
2019-05-13T02:48:42.008Z,20.00
2019-05-13T02:49:42.180Z,20.00
2019-05-13T02:50:39.545Z,20.00
2019-05-13T02:51:42.612Z,20.00
2019-05-13T02:52:39.525Z,20.00
2019-05-13T02:53:39.525Z,20.00
2019-05-13T02:54:42.447Z,20.00
2019-05-13T02:55:43.430Z,16.00
2019-05-13T02:56:42.211Z,20.00
2019-05-13T02:57:43.249Z,20.00
2019-05-13T02:58:42.820Z,20.00
2019-05-13T02:59:42.035Z,20.00
2019-05-13T03:00:39.452Z,28.00
2019-05-13T03:01:39.493Z,28.00
2019-05-13T03:02:39.434Z,28.00
2019-05-13T03:03:39.413Z,28.00
2019-05-13T03:04:43.093Z,28.00
2019-05-13T03:05:42.622Z,16.00
2019-05-13T03:06:39.383Z,16.00
2019-05-13T03:07:42.793Z,16.00
2019-05-13T03:08:49.160Z,16.00
2019-05-13T03:09:42.234Z,20.00
2019-05-13T03:10:43.437Z,24.00
2019-05-13T03:11:42.335Z,24.00
2019-05-13T03:12:41.621Z,24.00
2019-05-13T03:13:42.564Z,28.00
2019-05-13T03:14:45.062Z,24.00
2019-05-13T03:15:42.672Z,28.00
2019-05-13T03:16:39.276Z,32.00
2019-05-13T03:17:39.262Z,32.00
2019-05-13T03:18:39.251Z,36.00
2019-05-13T03:19:39.302Z,40.00
2019-05-13T03:20:39.231Z,44.00
2019-05-13T03:21:39.221Z,48.00
2019-05-13T03:22:43.104Z,52.00
2019-05-13T03:23:39.203Z,60.00
2019-05-13T03:24:39.210Z,64.00
2019-05-13T03:25:39.210Z,72.00
2019-05-13T03:26:42.524Z,80.00
2019-05-13T03:27:39.160Z,84.00
2019-05-13T03:28:39.185Z,96.00
2019-05-13T03:29:39.432Z,100.00
2019-05-13T03:30:39.131Z,112.00
2019-05-13T03:31:45.562Z,108.00
2019-05-13T03:32:46.091Z,120.00
2019-05-13T03:33:45.265Z,128.00
2019-05-13T03:34:44.643Z,140.00
2019-05-13T03:35:45.768Z,152.00
2019-05-13T03:36:45.512Z,164.00
2019-05-13T03:37:42.414Z,176.00
2019-05-13T03:38:58.236Z,192.00
2019-05-13T03:39:43.173Z,204.00
2019-05-13T03:40:42.200Z,220.00
2019-05-13T03:41:42.075Z,236.00
2019-05-13T03:42:42.299Z,256.00
2019-05-13T03:43:42.688Z,272.00
2019-05-13T03:44:38.977Z,284.00
2019-05-13T03:45:38.980Z,304.00
2019-05-13T03:46:42.324Z,324.00
2019-05-13T03:47:42.007Z,340.00
2019-05-13T03:48:42.479Z,360.00
2019-05-13T03:49:38.923Z,380.00
2019-05-13T03:50:39.189Z,396.00
2019-05-13T03:51:38.906Z,416.00
2019-05-13T03:52:38.885Z,436.00
2019-05-13T03:53:38.875Z,456.00
2019-05-13T03:54:43.351Z,476.00
2019-05-13T03:55:38.855Z,492.00
2019-05-13T03:56:38.854Z,516.00
2019-05-13T03:57:42.350Z,536.00
2019-05-13T03:58:38.823Z,556.00
2019-05-13T03:59:38.815Z,580.00
2019-05-13T04:00:38.834Z,596.00
2019-05-13T04:01:38.794Z,620.00
2019-05-13T04:02:38.784Z,640.00
2019-05-13T04:03:38.814Z,660.00
2019-05-13T04:04:42.017Z,680.00
2019-05-13T04:05:38.755Z,696.00
2019-05-13T04:06:38.814Z,720.00
2019-05-13T04:07:38.734Z,736.00
2019-05-13T04:08:38.712Z,760.00
2019-05-13T04:09:42.157Z,776.00
2019-05-13T04:10:41.931Z,796.00
2019-05-13T04:11:38.694Z,816.00
2019-05-13T04:12:41.752Z,832.00
2019-05-13T04:13:38.663Z,852.00
2019-05-13T04:14:38.652Z,868.00
2019-05-13T04:15:38.649Z,888.00
2019-05-13T04:16:38.926Z,908.00
2019-05-13T04:17:38.631Z,924.00
2019-05-13T04:18:38.660Z,948.00
2019-05-13T04:19:38.606Z,964.00
2019-05-13T04:20:38.599Z,988.00
2019-05-13T04:21:38.579Z,1004.00
2019-05-13T04:22:38.572Z,1024.00
2019-05-13T04:23:38.563Z,1040.00
2019-05-13T04:24:38.682Z,1060.00
2019-05-13T04:25:39.743Z,1076.00
2019-05-13T04:26:43.011Z,1096.00
2019-05-13T04:27:38.520Z,1108.00
2019-05-13T04:28:38.789Z,1128.00
2019-05-13T04:29:38.502Z,1144.00
2019-05-13T04:30:38.554Z,1156.00
2019-05-13T04:31:38.488Z,1164.00
2019-05-13T04:32:38.468Z,1192.00
2019-05-13T04:33:38.468Z,1212.00
2019-05-13T04:34:38.448Z,1228.00
2019-05-13T04:35:38.429Z,1248.00
2019-05-13T04:36:38.468Z,1264.00
2019-05-13T04:37:38.408Z,1288.00
2019-05-13T04:38:38.404Z,1300.00
2019-05-13T04:39:47.780Z,1320.00
2019-05-13T04:40:42.319Z,1332.00
2019-05-13T04:41:38.388Z,1336.00
2019-05-13T04:42:38.427Z,1356.00
2019-05-13T04:43:42.957Z,1376.00
2019-05-13T04:44:38.336Z,1404.00
2019-05-13T04:45:38.820Z,1408.00
2019-05-13T04:46:43.081Z,1416.00
2019-05-13T04:47:38.319Z,1436.00
2019-05-13T04:48:40.497Z,1460.00
2019-05-13T04:49:42.602Z,1536.00
2019-05-13T04:50:38.275Z,1512.00
2019-05-13T04:51:42.103Z,1560.00
2019-05-13T04:52:38.261Z,1628.00
2019-05-13T04:53:38.243Z,1644.00
2019-05-13T04:54:38.276Z,1640.00
2019-05-13T04:55:38.218Z,1664.00
2019-05-13T04:56:38.216Z,1816.00
2019-05-13T04:57:38.203Z,1848.00
2019-05-13T04:58:38.483Z,1952.00
2019-05-13T04:59:41.397Z,2012.00
2019-05-13T05:00:42.300Z,2068.00
2019-05-13T05:01:40.200Z,2096.00
2019-05-13T05:02:46.059Z,2180.00
2019-05-13T05:03:42.062Z,2244.00
2019-05-13T05:04:39.135Z,2300.00
2019-05-13T05:05:38.570Z,2364.00
2019-05-13T05:06:38.143Z,2424.00
2019-05-13T05:07:38.115Z,2484.00
2019-05-13T05:08:38.110Z,2480.00
2019-05-13T05:09:42.864Z,2532.00
2019-05-13T05:10:42.068Z,2508.00
2019-05-13T05:11:38.062Z,2432.00
2019-05-13T05:12:38.405Z,2660.00
2019-05-13T05:13:38.045Z,2816.00
2019-05-13T05:14:38.041Z,2844.00
2019-05-13T05:15:38.064Z,2876.00
2019-05-13T05:16:42.043Z,2932.00
2019-05-13T05:17:39.326Z,2928.00
2019-05-13T05:18:37.993Z,3120.00
2019-05-13T05:19:38.841Z,3204.00
2019-05-13T05:20:37.972Z,3216.00
2019-05-13T05:21:37.941Z,3344.00
2019-05-13T05:22:37.961Z,3484.00
2019-05-13T05:23:38.651Z,3548.00
2019-05-13T05:24:37.931Z,3584.00
2019-05-13T05:25:41.491Z,3708.00
2019-05-13T05:26:37.909Z,3764.00
2019-05-13T05:27:37.898Z,3924.00
2019-05-13T05:28:37.872Z,4008.00
2019-05-13T05:29:38.449Z,4080.00
2019-05-13T05:30:37.840Z,4168.00
2019-05-13T05:31:38.128Z,4248.00
2019-05-13T05:32:37.827Z,4304.00
2019-05-13T05:33:37.819Z,4332.00
2019-05-13T05:34:37.818Z,4336.00
2019-05-13T05:35:37.837Z,4208.00
2019-05-13T05:36:37.790Z,4308.00
2019-05-13T05:37:37.798Z,4296.00
2019-05-13T05:38:38.202Z,4312.00
2019-05-13T05:39:37.751Z,4272.00
2019-05-13T05:40:37.759Z,4252.00
2019-05-13T05:41:37.788Z,4212.00
2019-05-13T05:42:37.728Z,4216.00
2019-05-13T05:43:37.708Z,4240.00
2019-05-13T05:44:37.726Z,4328.00
2019-05-13T05:45:37.688Z,4344.00
2019-05-13T05:46:37.698Z,4468.00
2019-05-13T05:47:38.078Z,3072.00
2019-05-13T05:48:37.679Z,4556.00
2019-05-13T05:49:37.648Z,4600.00
2019-05-13T05:50:37.667Z,4656.00
2019-05-13T05:51:37.628Z,4732.00
2019-05-13T05:52:37.640Z,4744.00
2019-05-13T05:53:38.437Z,4772.00
2019-05-13T05:54:37.622Z,4688.00
2019-05-13T05:55:37.593Z,4656.00
2019-05-13T05:56:37.863Z,4644.00
2019-05-13T05:57:37.564Z,4640.00
2019-05-13T05:58:37.557Z,4648.00
2019-05-13T05:59:37.596Z,4660.00
2019-05-13T06:00:37.553Z,4664.00
2019-05-13T06:01:37.582Z,4688.00
2019-05-13T06:02:37.551Z,4720.00
2019-05-13T06:03:37.516Z,4744.00
2019-05-13T06:04:37.487Z,4748.00
2019-05-13T06:05:37.506Z,4732.00
2019-05-13T06:06:37.472Z,4740.00
2019-05-13T06:07:37.459Z,4760.00
2019-05-13T06:08:37.724Z,4772.00
2019-05-13T06:09:37.468Z,4768.00
2019-05-13T06:10:49.609Z,4744.00
2019-05-13T06:11:38.493Z,4740.00
2019-05-13T06:12:37.399Z,4752.00
2019-05-13T06:13:37.883Z,4764.00
2019-05-13T06:14:37.384Z,4472.00
2019-05-13T06:15:37.390Z,4792.00
2019-05-13T06:16:37.373Z,4800.00
2019-05-13T06:17:40.683Z,4828.00
2019-05-13T06:18:37.337Z,4868.00
2019-05-13T06:19:37.903Z,4864.00
2019-05-13T06:20:37.605Z,4852.00
2019-05-13T06:21:37.310Z,4752.00
2019-05-13T06:22:37.292Z,4416.00
2019-05-13T06:23:38.172Z,4416.00
2019-05-13T06:24:37.301Z,3940.00
2019-05-13T06:25:37.265Z,3916.00
2019-05-13T06:26:37.262Z,3756.00
2019-05-13T06:27:37.251Z,4940.00
2019-05-13T06:28:37.232Z,4876.00
2019-05-13T06:29:37.290Z,4868.00
2019-05-13T06:30:37.230Z,4912.00
2019-05-13T06:31:37.204Z,4928.00
2019-05-13T06:32:37.234Z,4612.00
2019-05-13T06:33:37.643Z,4940.00
2019-05-13T06:34:37.171Z,5028.00
2019-05-13T06:35:37.214Z,4876.00
2019-05-13T06:36:37.162Z,5012.00
2019-05-13T06:37:37.139Z,5012.00
2019-05-13T06:38:37.130Z,4936.00
2019-05-13T06:39:37.144Z,4952.00
2019-05-13T06:40:37.479Z,4920.00
2019-05-13T06:41:37.152Z,4956.00
2019-05-13T06:42:37.132Z,4900.00
2019-05-13T06:43:37.104Z,4908.00
2019-05-13T06:44:37.069Z,5020.00
2019-05-13T06:45:37.049Z,5116.00
2019-05-13T06:46:37.039Z,5236.00
2019-05-13T06:47:37.120Z,5220.00
2019-05-13T06:48:37.840Z,5384.00
2019-05-13T06:49:37.019Z,5484.00
2019-05-13T06:50:37.838Z,5592.00
2019-05-13T06:51:37.012Z,5836.00
2019-05-13T06:52:36.988Z,6004.00
2019-05-13T06:53:37.340Z,3736.00
2019-05-13T06:54:36.959Z,5836.00
2019-05-13T06:55:36.946Z,6052.00
2019-05-13T06:56:38.017Z,10344.00
2019-05-13T06:57:38.978Z,5280.00
2019-05-13T06:58:36.919Z,6044.00
2019-05-13T06:59:36.947Z,5592.00
2019-05-13T07:00:36.969Z,6968.00
2019-05-13T07:01:37.391Z,7696.00
2019-05-13T07:02:36.878Z,7952.00
2019-05-13T07:03:36.877Z,8116.00
2019-05-13T07:04:37.388Z,8692.00
2019-05-13T07:05:36.906Z,9040.00
2019-05-13T07:06:37.108Z,8996.00
2019-05-13T07:07:36.854Z,5400.00
2019-05-13T07:08:36.806Z,9636.00
2019-05-13T07:09:36.844Z,10140.00
2019-05-13T07:10:36.802Z,10352.00
2019-05-13T07:11:36.844Z,10988.00
2019-05-13T07:12:36.783Z,11724.00
2019-05-13T07:13:36.756Z,9364.00
2019-05-13T07:14:36.746Z,8204.00
2019-05-13T07:15:36.755Z,8232.00
2019-05-13T07:16:36.732Z,12264.00
2019-05-13T07:17:36.765Z,13524.00
2019-05-13T07:18:37.725Z,10520.00
2019-05-13T07:19:36.706Z,11216.00
2019-05-13T07:20:36.790Z,12720.00
2019-05-13T07:21:36.845Z,13056.00
2019-05-13T07:22:36.673Z,13476.00
2019-05-13T07:23:37.782Z,14320.00
2019-05-13T07:24:36.640Z,14136.00
2019-05-13T07:25:36.633Z,14000.00
2019-05-13T07:26:37.355Z,14280.00
2019-05-13T07:27:36.673Z,13792.00
2019-05-13T07:28:36.611Z,13908.00
2019-05-13T07:29:36.730Z,13500.00
2019-05-13T07:30:37.343Z,13688.00
2019-05-13T07:31:36.945Z,13552.00
2019-05-13T07:32:36.775Z,13692.00
2019-05-13T07:33:36.759Z,14108.00
2019-05-13T07:34:37.083Z,13744.00
2019-05-13T07:35:38.182Z,13208.00
2019-05-13T07:36:36.515Z,12844.00
2019-05-13T07:37:36.494Z,13244.00
2019-05-13T07:38:36.484Z,14008.00
2019-05-13T07:39:36.493Z,13840.00
2019-05-13T07:40:37.123Z,13648.00
2019-05-13T07:41:39.593Z,14144.00
2019-05-13T07:42:37.763Z,13904.00
2019-05-13T07:43:36.434Z,13584.00
2019-05-13T07:44:36.591Z,13560.00
2019-05-13T07:45:36.483Z,13460.00
2019-05-13T07:46:36.564Z,8096.00
2019-05-13T07:47:37.159Z,12504.00
2019-05-13T07:48:37.380Z,12620.00
2019-05-13T07:49:36.382Z,13128.00
2019-05-13T07:50:51.501Z,12788.00
2019-05-13T07:51:37.372Z,12668.00
2019-05-13T07:52:36.933Z,12452.00
2019-05-13T07:53:36.378Z,12508.00
2019-05-13T07:54:36.608Z,12372.00
2019-05-13T07:55:36.311Z,12580.00
2019-05-13T07:56:36.806Z,12544.00
2019-05-13T07:57:36.284Z,12720.00
2019-05-13T07:58:37.554Z,12632.00
2019-05-13T07:59:36.314Z,12776.00
2019-05-13T08:00:36.423Z,12760.00
2019-05-13T08:01:36.281Z,12856.00
2019-05-13T08:02:36.230Z,12732.00
2019-05-13T08:03:37.118Z,12800.00
2019-05-13T08:04:37.106Z,12948.00
2019-05-13T08:05:37.055Z,12932.00
2019-05-13T08:06:36.192Z,12928.00
2019-05-13T08:07:36.663Z,12992.00
2019-05-13T08:08:36.173Z,13076.00
2019-05-13T08:09:36.153Z,13048.00
2019-05-13T08:10:37.061Z,12928.00
2019-05-13T08:11:53.601Z,13100.00
2019-05-13T08:12:37.185Z,13272.00
2019-05-13T08:13:36.123Z,13284.00
2019-05-13T08:14:36.482Z,13380.00
2019-05-13T08:15:36.168Z,13604.00
2019-05-13T08:16:36.083Z,13560.00
2019-05-13T08:17:36.612Z,13684.00
2019-05-13T08:18:36.099Z,13668.00
2019-05-13T08:19:36.062Z,13852.00
2019-05-13T08:20:36.494Z,13832.00
2019-05-13T08:21:36.502Z,13780.00
2019-05-13T08:22:36.021Z,13764.00
2019-05-13T08:23:36.051Z,13824.00
2019-05-13T08:24:36.009Z,13868.00
2019-05-13T08:25:36.029Z,13888.00
2019-05-13T08:26:38.121Z,13960.00
2019-05-13T08:27:37.537Z,13992.00
2019-05-13T08:28:36.262Z,14076.00
2019-05-13T08:29:36.531Z,14064.00
2019-05-13T08:30:36.761Z,14108.00
2019-05-13T08:31:36.322Z,14060.00
2019-05-13T08:32:37.692Z,14188.00
2019-05-13T08:33:36.750Z,14248.00
2019-05-13T08:34:36.882Z,14260.00
2019-05-13T08:35:37.698Z,14336.00
2019-05-13T08:36:39.314Z,14380.00
2019-05-13T08:37:35.864Z,14396.00
2019-05-13T08:38:35.859Z,14436.00
2019-05-13T08:39:38.315Z,14456.00
2019-05-13T08:40:35.834Z,14564.00
2019-05-13T08:41:35.884Z,14628.00
2019-05-13T08:42:35.821Z,14688.00
2019-05-13T08:43:35.801Z,14664.00
2019-05-13T08:44:35.845Z,14732.00
2019-05-13T08:45:35.781Z,14708.00
2019-05-13T08:46:35.809Z,14836.00
2019-05-13T08:47:35.809Z,14912.00
2019-05-13T08:48:35.731Z,14956.00
2019-05-13T08:49:35.743Z,14928.00
2019-05-13T08:50:36.911Z,15008.00
2019-05-13T08:51:35.807Z,15072.00
2019-05-13T08:52:35.702Z,15456.00
2019-05-13T08:53:36.573Z,15516.00
2019-05-13T08:54:36.085Z,15420.00
2019-05-13T08:55:35.691Z,15292.00
2019-05-13T08:56:35.648Z,15304.00
2019-05-13T08:57:35.712Z,15280.00
2019-05-13T08:58:35.688Z,15452.00
2019-05-13T08:59:35.668Z,15496.00
2019-05-13T09:00:36.102Z,15624.00
2019-05-13T09:01:35.591Z,15748.00
2019-05-13T09:02:35.582Z,15896.00
2019-05-13T09:03:35.572Z,15608.00
2019-05-13T09:04:35.585Z,15580.00
2019-05-13T09:05:35.609Z,15748.00
2019-05-13T09:06:35.561Z,16012.00
2019-05-13T09:07:35.531Z,15904.00
2019-05-13T09:08:35.513Z,15808.00
2019-05-13T09:09:35.511Z,15908.00
2019-05-13T09:10:35.539Z,15732.00
2019-05-13T09:11:35.550Z,15912.00
2019-05-13T09:12:38.317Z,15776.00
2019-05-13T09:13:35.493Z,15756.00
2019-05-13T09:14:35.451Z,15780.00
2019-05-13T09:15:35.601Z,16032.00
2019-05-13T09:16:35.438Z,16120.00
2019-05-13T09:17:36.499Z,16112.00
2019-05-13T09:18:35.421Z,16132.00
2019-05-13T09:19:35.436Z,16052.00
2019-05-13T09:20:35.432Z,16128.00
2019-05-13T09:21:35.783Z,16080.00
2019-05-13T09:22:35.370Z,16132.00
2019-05-13T09:23:35.404Z,16176.00
2019-05-13T09:24:37.736Z,16236.00
2019-05-13T09:25:35.407Z,16408.00
2019-05-13T09:26:36.209Z,16556.00
2019-05-13T09:27:35.340Z,16412.00
2019-05-13T09:28:35.310Z,16460.00
2019-05-13T09:29:36.230Z,16480.00
2019-05-13T09:30:36.652Z,16664.00
2019-05-13T09:31:35.271Z,17248.00
2019-05-13T09:32:35.557Z,17216.00
2019-05-13T09:33:35.288Z,16700.00
2019-05-13T09:34:35.241Z,16572.00
2019-05-13T09:35:35.284Z,16696.00
2019-05-13T09:36:36.196Z,16960.00
2019-05-13T09:37:35.717Z,16620.00
2019-05-13T09:38:35.444Z,16624.00
2019-05-13T09:39:35.557Z,16960.00
2019-05-13T09:40:35.246Z,17120.00
2019-05-13T09:41:40.834Z,17440.00
2019-05-13T09:42:48.181Z,17440.00
2019-05-13T09:43:36.170Z,17216.00
2019-05-13T09:44:35.533Z,17024.00
2019-05-13T09:45:35.212Z,17184.00
2019-05-13T09:46:35.292Z,17184.00
2019-05-13T09:47:36.492Z,16992.00
2019-05-13T09:48:37.122Z,17152.00
2019-05-13T09:49:35.232Z,17184.00
2019-05-13T09:50:36.343Z,17184.00
2019-05-13T09:51:35.692Z,17344.00
2019-05-13T09:52:39.599Z,17312.00
2019-05-13T09:53:35.081Z,17376.00
2019-05-13T09:54:35.641Z,17312.00
2019-05-13T09:55:35.473Z,17440.00
2019-05-13T09:56:35.617Z,17536.00
2019-05-13T09:57:35.612Z,17536.00
2019-05-13T09:58:35.350Z,17696.00
2019-05-13T09:59:35.065Z,17792.00
2019-05-13T10:00:35.171Z,17888.00
2019-05-13T10:01:34.952Z,17952.00
2019-05-13T10:02:35.559Z,18048.00
2019-05-13T10:03:51.969Z,18176.00
2019-05-13T10:04:36.042Z,18240.00
2019-05-13T10:05:35.315Z,18400.00
2019-05-13T10:06:35.171Z,18432.00
2019-05-13T10:07:35.701Z,18560.00
2019-05-13T10:08:34.883Z,18880.00
2019-05-13T10:09:34.866Z,18976.00
2019-05-13T10:10:34.931Z,19168.00
2019-05-13T10:11:35.213Z,19200.00
2019-05-13T10:12:34.832Z,19264.00
2019-05-13T10:13:34.863Z,19328.00
2019-05-13T10:14:34.884Z,19424.00
2019-05-13T10:15:34.844Z,19584.00
2019-05-13T10:16:34.977Z,19648.00
2019-05-13T10:17:35.612Z,19680.00
2019-05-13T10:18:35.261Z,19840.00
2019-05-13T10:19:34.772Z,20096.00
2019-05-13T10:20:34.744Z,20160.00
2019-05-13T10:21:34.744Z,20384.00
2019-05-13T10:22:34.794Z,20608.00
2019-05-13T10:23:34.742Z,20800.00
2019-05-13T10:24:34.713Z,21120.00
2019-05-13T10:25:35.115Z,21568.00
2019-05-13T10:26:34.751Z,22848.00
2019-05-13T10:27:35.650Z,25568.00
2019-05-13T10:28:34.694Z,29600.00
2019-05-13T10:29:35.581Z,34912.00
2019-05-13T10:30:37.345Z,40416.00
2019-05-13T10:31:34.639Z,47552.00
2019-05-13T10:32:35.249Z,53664.00
2019-05-13T10:33:34.625Z,60320.00
2019-05-13T10:34:34.665Z,66208.00
2019-05-13T10:35:34.596Z,71072.00
2019-05-13T10:36:35.473Z,74496.00
2019-05-13T10:37:35.078Z,75488.00
2019-05-13T10:38:34.627Z,75904.00
2019-05-13T10:39:34.639Z,73216.00
2019-05-13T10:40:34.719Z,66688.00
2019-05-13T10:41:34.660Z,62208.00
2019-05-13T10:42:34.546Z,62912.00
2019-05-13T10:43:40.231Z,66912.00
2019-05-13T10:44:35.507Z,71456.00
2019-05-13T10:45:34.547Z,72352.00
2019-05-13T10:46:34.550Z,71040.00
2019-05-13T10:47:34.486Z,69344.00
2019-05-13T10:48:34.446Z,69376.00
2019-05-13T10:49:34.906Z,72160.00
2019-05-13T10:50:34.946Z,75744.00
2019-05-13T10:51:34.427Z,77472.00
2019-05-13T10:52:35.247Z,75936.00
2019-05-13T10:53:35.216Z,74656.00
2019-05-13T10:54:35.207Z,74528.00
2019-05-13T10:55:34.529Z,72544.00
2019-05-13T10:56:34.586Z,72064.00
2019-05-13T10:57:34.670Z,73280.00
2019-05-13T10:58:34.991Z,76448.00
2019-05-13T10:59:35.739Z,79552.00
2019-05-13T11:00:34.647Z,80768.00
2019-05-13T11:01:34.686Z,79840.00
2019-05-13T11:02:35.524Z,82464.00
2019-05-13T11:03:35.095Z,81760.00
2019-05-13T11:04:34.318Z,82016.00
2019-05-13T11:05:34.274Z,83168.00
2019-05-13T11:06:34.272Z,86176.00
2019-05-13T11:07:36.279Z,86848.00
2019-05-13T11:08:34.238Z,84288.00
2019-05-13T11:09:34.920Z,83264.00
2019-05-13T11:10:34.387Z,82624.00
2019-05-13T11:11:34.409Z,81408.00
2019-05-13T11:12:36.183Z,80224.00
2019-05-13T11:13:52.274Z,82400.00
2019-05-13T11:14:42.171Z,83552.00
2019-05-13T11:15:41.128Z,84448.00
2019-05-13T11:16:35.229Z,83776.00
2019-05-13T11:17:34.405Z,84480.00
2019-05-13T11:18:34.155Z,83616.00
2019-05-13T11:19:36.922Z,82816.00
2019-05-13T11:20:35.429Z,84064.00
2019-05-13T11:21:34.180Z,81984.00
2019-05-13T11:22:34.715Z,80384.00
2019-05-13T11:23:35.147Z,78368.00
2019-05-13T11:24:34.079Z,79200.00
2019-05-13T11:25:36.195Z,76896.00
2019-05-13T11:26:36.334Z,74432.00
2019-05-13T11:27:34.466Z,69728.00
2019-05-13T11:28:34.442Z,66368.00
2019-05-13T11:29:34.024Z,67072.00
2019-05-13T11:30:34.811Z,68608.00
2019-05-13T11:31:34.523Z,68704.00
2019-05-13T11:32:37.011Z,70112.00
2019-05-13T11:33:34.762Z,76096.00
2019-05-13T11:34:34.010Z,77472.00
2019-05-13T11:35:34.803Z,82176.00
2019-05-13T11:36:33.945Z,82432.00
2019-05-13T11:37:33.972Z,80832.00
2019-05-13T11:38:34.338Z,78496.00
2019-05-13T11:39:33.918Z,77664.00
2019-05-13T11:40:34.173Z,75456.00
2019-05-13T11:41:34.823Z,73760.00
2019-05-13T11:42:34.132Z,9600.00
2019-05-13T11:43:33.893Z,36512.00
2019-05-13T11:44:34.339Z,87424.00
2019-05-13T11:45:33.852Z,85792.00
2019-05-13T11:46:33.906Z,83200.00
2019-05-13T11:47:34.065Z,78368.00
2019-05-13T11:48:33.833Z,76416.00
2019-05-13T11:49:34.206Z,77440.00
2019-05-13T11:50:34.536Z,79104.00
2019-05-13T11:51:33.893Z,78368.00
2019-05-13T11:52:35.863Z,77472.00
2019-05-13T11:53:37.168Z,70720.00
2019-05-13T11:54:33.763Z,73248.00
2019-05-13T11:55:33.765Z,79680.00
2019-05-13T11:56:33.973Z,78144.00
2019-05-13T11:57:33.728Z,73952.00
2019-05-13T11:58:33.878Z,69504.00
2019-05-13T11:59:33.704Z,67200.00
2019-05-13T12:00:33.713Z,69152.00
2019-05-13T12:01:34.081Z,73600.00
2019-05-13T12:02:33.694Z,78080.00
2019-05-13T12:03:33.655Z,81216.00
2019-05-13T12:04:34.841Z,81216.00
2019-05-13T12:05:34.082Z,79712.00
2019-05-13T12:06:34.300Z,78336.00
2019-05-13T12:07:33.657Z,79200.00
2019-05-13T12:08:34.305Z,83040.00
2019-05-13T12:09:33.649Z,84480.00
2019-05-13T12:10:33.712Z,83008.00
2019-05-13T12:11:33.775Z,82080.00